sensor_id;sensor_type;location;lat;lon;timestamp;P1;P2;P0
64861;PMS5003;62652;42.274;-71.436;2023-06-10T00:00:00;5.27;4.63;2.87
64861;PMS5003;62652;42.274;-71.436;2023-06-10T00:01:00;4.20;4.20;3.20
64861;PMS5003;62652;42.274;-71.436;2023-06-10T00:02:00;4.37;4.17;2.87
64861;PMS5003;62652;42.274;-71.436;2023-06-10T00:03:00;4.80;4.70;3.07
64861;PMS5003;62652;42.274;-71.436;2023-06-10T00:04:00;3.50;3.00;2.20
64861;PMS5003;62652;42.274;-71.436;2023-06-10T00:05:00;2.60;2.60;1.97
64861;PMS5003;62652;42.274;-71.436;2023-06-10T00:06:00;4.50;4.50;2.40
64861;PMS5003;62652;42.274;-71.436;2023-06-10T00:07:00;4.17;4.17;3.00
64861;PMS5003;62652;42.274;-71.436;2023-06-10T00:08:00;4.57;4.57;3.43
64861;PMS5003;62652;42.274;-71.436;2023-06-10T00:09:00;6.27;5.17;3.57
64861;PMS5003;62652;42.274;-71.436;2023-06-10T00:10:00;4.07;4.07;2.90
64861;PMS5003;62652;42.274;-71.436;2023-06-10T00:11:00;4.73;4.53;3.63
64861;PMS5003;62652;42.274;-71.436;2023-06-10T00:12:00;7.00;6.43;3.87
64861;PMS5003;62652;42.274;-71.436;2023-06-10T00:13:00;4.77;4.17;2.80
64861;PMS5003;62652;42.274;-71.436;2023-06-10T00:14:00;3.30;3.30;1.93
64861;PMS5003;62652;42.274;-71.436;2023-06-10T00:15:00;5.00;4.70;3.07
64861;PMS5003;62652;42.274;-71.436;2023-06-10T00:16:00;5.87;5.57;3.90
64861;PMS5003;62652;42.274;-71.436;2023-06-10T00:17:00;4.77;4.47;2.97
64861;PMS5003;62652;42.274;-71.436;2023-06-10T00:18:00;5.17;5.13;3.83
64861;PMS5003;62652;42.274;-71.436;2023-06-10T00:19:00;4.07;4.07;2.77
64861;PMS5003;62652;42.274;-71.436;2023-06-10T00:20:00;4.17;4.17;2.57
64861;PMS5003;62652;42.274;-71.436;2023-06-10T00:21:00;5.70;5.40;4.23
64861;PMS5003;62652;42.274;-71.436;2023-06-10T00:22:00;32.97;30.33;19.83
64861;PMS5003;62652;42.274;-71.436;2023-06-10T00:23:00;54.80;44.67;29.70
64861;PMS5003;62652;42.274;-71.436;2023-06-10T00:24:00;27.90;27.53;18.53
64861;PMS5003;62652;42.274;-71.436;2023-06-10T00:25:00;39.20;34.60;22.70
64861;PMS5003;62652;42.274;-71.436;2023-06-10T00:26:00;47.03;39.27;25.87
64861;PMS5003;62652;42.274;-71.436;2023-06-10T00:27:00;46.63;38.83;26.90
64861;PMS5003;62652;42.274;-71.436;2023-06-10T00:28:00;38.67;33.60;23.10
64861;PMS5003;62652;42.274;-71.436;2023-06-10T00:29:00;39.60;33.83;21.83
64861;PMS5003;62652;42.274;-71.436;2023-06-10T00:30:01;36.27;32.70;21.37
64861;PMS5003;62652;42.274;-71.436;2023-06-10T00:31:00;38.80;34.33;22.30
64861;PMS5003;62652;42.274;-71.436;2023-06-10T00:32:00;34.87;32.17;20.97
64861;PMS5003;62652;42.274;-71.436;2023-06-10T00:33:00;32.27;30.93;20.27
64861;PMS5003;62652;42.274;-71.436;2023-06-10T00:34:00;39.93;34.90;23.37
64861;PMS5003;62652;42.274;-71.436;2023-06-10T00:35:00;37.97;32.57;21.60
64861;PMS5003;62652;42.274;-71.436;2023-06-10T00:36:00;14.20;14.07;10.57
64861;PMS5003;62652;42.274;-71.436;2023-06-10T00:37:00;17.30;15.57;11.17
64861;PMS5003;62652;42.274;-71.436;2023-06-10T00:38:00;15.13;15.07;10.03
64861;PMS5003;62652;42.274;-71.436;2023-06-10T00:39:00;16.37;15.57;11.40
64861;PMS5003;62652;42.274;-71.436;2023-06-10T00:40:00;18.17;17.33;11.63
64861;PMS5003;62652;42.274;-71.436;2023-06-10T00:41:00;13.13;12.10;9.07
64861;PMS5003;62652;42.274;-71.436;2023-06-10T00:42:00;13.10;12.77;8.00
64861;PMS5003;62652;42.274;-71.436;2023-06-10T00:43:00;10.60;10.10;7.27
64861;PMS5003;62652;42.274;-71.436;2023-06-10T00:44:00;11.53;11.37;8.73
64861;PMS5003;62652;42.274;-71.436;2023-06-10T00:45:00;11.30;11.30;8.27
64861;PMS5003;62652;42.274;-71.436;2023-06-10T00:46:00;13.00;12.00;8.87
64861;PMS5003;62652;42.274;-71.436;2023-06-10T00:47:00;10.47;10.13;7.67
64861;PMS5003;62652;42.274;-71.436;2023-06-10T00:48:00;11.60;10.73;7.37
64861;PMS5003;62652;42.274;-71.436;2023-06-10T00:49:00;7.37;7.37;6.00
64861;PMS5003;62652;42.274;-71.436;2023-06-10T00:50:00;9.43;9.23;6.40
64861;PMS5003;62652;42.274;-71.436;2023-06-10T00:51:00;8.07;7.97;6.17
64861;PMS5003;62652;42.274;-71.436;2023-06-10T00:52:00;9.00;8.77;6.77
64861;PMS5003;62652;42.274;-71.436;2023-06-10T00:53:00;8.33;7.83;5.67
64861;PMS5003;62652;42.274;-71.436;2023-06-10T00:54:00;8.93;8.80;5.67
64861;PMS5003;62652;42.274;-71.436;2023-06-10T00:55:00;9.13;9.13;6.63
64861;PMS5003;62652;42.274;-71.436;2023-06-10T00:56:00;8.47;8.23;6.37
64861;PMS5003;62652;42.274;-71.436;2023-06-10T00:57:00;7.23;7.23;6.03
64861;PMS5003;62652;42.274;-71.436;2023-06-10T00:58:00;9.63;8.70;5.47
64861;PMS5003;62652;42.274;-71.436;2023-06-10T00:59:00;7.67;7.67;6.20
64861;PMS5003;62652;42.274;-71.436;2023-06-10T01:00:00;8.43;6.63;5.90
64861;PMS5003;62652;42.274;-71.436;2023-06-10T01:01:00;5.73;5.13;3.93
64861;PMS5003;62652;42.274;-71.436;2023-06-10T01:02:00;8.47;7.73;5.27
64861;PMS5003;62652;42.274;-71.436;2023-06-10T01:03:00;6.77;6.53;5.17
64861;PMS5003;62652;42.274;-71.436;2023-06-10T01:04:00;7.17;6.73;5.63
64861;PMS5003;62652;42.274;-71.436;2023-06-10T01:05:00;6.87;6.70;4.97
64861;PMS5003;62652;42.274;-71.436;2023-06-10T01:06:01;5.60;5.60;4.13
64861;PMS5003;62652;42.274;-71.436;2023-06-10T01:07:02;5.97;5.73;4.10
64861;PMS5003;62652;42.274;-71.436;2023-06-10T01:08:01;5.77;5.77;4.30
64861;PMS5003;62652;42.274;-71.436;2023-06-10T01:09:02;6.47;5.23;4.23
64861;PMS5003;62652;42.274;-71.436;2023-06-10T01:10:01;5.60;5.60;4.30
64861;PMS5003;62652;42.274;-71.436;2023-06-10T01:11:00;5.83;4.97;3.53
64861;PMS5003;62652;42.274;-71.436;2023-06-10T01:12:02;7.10;6.20;5.00
64861;PMS5003;62652;42.274;-71.436;2023-06-10T01:13:02;7.20;6.27;4.27
64861;PMS5003;62652;42.274;-71.436;2023-06-10T01:14:00;7.17;6.73;4.40
64861;PMS5003;62652;42.274;-71.436;2023-06-10T01:15:00;6.60;6.57;4.53
64861;PMS5003;62652;42.274;-71.436;2023-06-10T01:16:00;7.20;6.70;4.93
64861;PMS5003;62652;42.274;-71.436;2023-06-10T01:17:00;6.27;6.23;3.97
64861;PMS5003;62652;42.274;-71.436;2023-06-10T01:18:01;6.30;5.30;3.90
64861;PMS5003;62652;42.274;-71.436;2023-06-10T01:19:00;7.27;7.13;5.97
64861;PMS5003;62652;42.274;-71.436;2023-06-10T01:20:00;6.20;6.10;4.40
64861;PMS5003;62652;42.274;-71.436;2023-06-10T01:21:00;6.33;5.50;4.07
64861;PMS5003;62652;42.274;-71.436;2023-06-10T01:22:00;7.27;7.27;5.33
64861;PMS5003;62652;42.274;-71.436;2023-06-10T01:23:00;7.00;6.67;5.27
64861;PMS5003;62652;42.274;-71.436;2023-06-10T01:24:00;6.53;6.53;4.80
64861;PMS5003;62652;42.274;-71.436;2023-06-10T01:25:00;7.87;7.53;5.63
64861;PMS5003;62652;42.274;-71.436;2023-06-10T01:26:02;7.63;7.43;4.87
64861;PMS5003;62652;42.274;-71.436;2023-06-10T01:27:01;9.23;7.27;5.77
64861;PMS5003;62652;42.274;-71.436;2023-06-10T01:28:02;6.37;6.37;4.97
64861;PMS5003;62652;42.274;-71.436;2023-06-10T01:29:02;8.03;7.93;6.03
64861;PMS5003;62652;42.274;-71.436;2023-06-10T01:30:02;7.13;7.13;5.50
64861;PMS5003;62652;42.274;-71.436;2023-06-10T01:31:02;7.43;7.43;5.27
64861;PMS5003;62652;42.274;-71.436;2023-06-10T01:32:01;6.33;6.33;4.57
64861;PMS5003;62652;42.274;-71.436;2023-06-10T01:33:00;6.70;6.33;4.33
64861;PMS5003;62652;42.274;-71.436;2023-06-10T01:34:01;6.07;6.07;4.53
64861;PMS5003;62652;42.274;-71.436;2023-06-10T01:35:00;7.50;7.00;5.30
64861;PMS5003;62652;42.274;-71.436;2023-06-10T01:36:00;4.90;4.70;3.27
64861;PMS5003;62652;42.274;-71.436;2023-06-10T01:37:00;5.63;4.80;3.60
64861;PMS5003;62652;42.274;-71.436;2023-06-10T01:38:00;8.90;7.90;5.70
64861;PMS5003;62652;42.274;-71.436;2023-06-10T01:39:00;5.70;5.53;4.00
64861;PMS5003;62652;42.274;-71.436;2023-06-10T01:40:00;6.40;6.30;5.00
64861;PMS5003;62652;42.274;-71.436;2023-06-10T01:41:00;7.27;7.27;5.03
64861;PMS5003;62652;42.274;-71.436;2023-06-10T01:42:00;5.77;5.23;4.30
64861;PMS5003;62652;42.274;-71.436;2023-06-10T01:43:00;6.87;6.50;4.73
64861;PMS5003;62652;42.274;-71.436;2023-06-10T01:44:00;7.23;7.23;5.27
64861;PMS5003;62652;42.274;-71.436;2023-06-10T01:45:00;8.50;7.90;6.00
64861;PMS5003;62652;42.274;-71.436;2023-06-10T01:46:00;6.90;6.90;5.30
64861;PMS5003;62652;42.274;-71.436;2023-06-10T01:47:00;6.87;6.33;5.33
64861;PMS5003;62652;42.274;-71.436;2023-06-10T01:48:00;7.53;6.93;5.67
64861;PMS5003;62652;42.274;-71.436;2023-06-10T01:49:00;8.17;7.73;5.43
64861;PMS5003;62652;42.274;-71.436;2023-06-10T01:50:00;6.80;6.77;5.77
64861;PMS5003;62652;42.274;-71.436;2023-06-10T01:51:00;7.37;7.37;5.27
64861;PMS5003;62652;42.274;-71.436;2023-06-10T01:52:00;8.63;7.97;6.23
64861;PMS5003;62652;42.274;-71.436;2023-06-10T01:53:00;7.17;7.17;4.93
64861;PMS5003;62652;42.274;-71.436;2023-06-10T01:54:00;8.00;7.53;5.60
64861;PMS5003;62652;42.274;-71.436;2023-06-10T01:55:00;7.37;7.37;5.80
64861;PMS5003;62652;42.274;-71.436;2023-06-10T01:56:00;10.33;10.33;7.00
64861;PMS5003;62652;42.274;-71.436;2023-06-10T01:57:00;11.00;10.80;8.10
64861;PMS5003;62652;42.274;-71.436;2023-06-10T01:58:00;12.33;12.33;9.60
64861;PMS5003;62652;42.274;-71.436;2023-06-10T01:59:00;15.47;14.43;9.93
64861;PMS5003;62652;42.274;-71.436;2023-06-10T02:00:00;11.80;11.80;8.37
64861;PMS5003;62652;42.274;-71.436;2023-06-10T02:01:00;13.77;13.43;9.03
64861;PMS5003;62652;42.274;-71.436;2023-06-10T02:02:00;11.47;10.77;7.70
64861;PMS5003;62652;42.274;-71.436;2023-06-10T02:03:00;10.67;10.67;8.30
64861;PMS5003;62652;42.274;-71.436;2023-06-10T02:04:00;11.70;10.87;8.20
64861;PMS5003;62652;42.274;-71.436;2023-06-10T02:05:00;9.00;9.00;6.20
64861;PMS5003;62652;42.274;-71.436;2023-06-10T02:06:00;8.00;7.67;5.43
64861;PMS5003;62652;42.274;-71.436;2023-06-10T02:07:00;7.30;7.20;5.20
64861;PMS5003;62652;42.274;-71.436;2023-06-10T02:08:00;6.70;6.33;4.73
64861;PMS5003;62652;42.274;-71.436;2023-06-10T02:09:00;7.37;6.97;4.77
64861;PMS5003;62652;42.274;-71.436;2023-06-10T02:10:00;6.50;5.97;4.30
64861;PMS5003;62652;42.274;-71.436;2023-06-10T02:11:00;5.13;5.13;4.03
64861;PMS5003;62652;42.274;-71.436;2023-06-10T02:12:00;4.07;4.07;3.07
64861;PMS5003;62652;42.274;-71.436;2023-06-10T02:13:00;5.47;5.20;3.50
64861;PMS5003;62652;42.274;-71.436;2023-06-10T02:14:00;6.13;6.13;4.20
64861;PMS5003;62652;42.274;-71.436;2023-06-10T02:15:00;6.53;6.33;4.70
64861;PMS5003;62652;42.274;-71.436;2023-06-10T02:16:00;8.10;6.97;5.83
64861;PMS5003;62652;42.274;-71.436;2023-06-10T02:17:00;8.37;7.73;5.53
64861;PMS5003;62652;42.274;-71.436;2023-06-10T02:18:00;9.27;9.03;5.83
64861;PMS5003;62652;42.274;-71.436;2023-06-10T02:19:00;9.53;9.53;6.60
64861;PMS5003;62652;42.274;-71.436;2023-06-10T02:20:00;8.93;8.37;5.87
64861;PMS5003;62652;42.274;-71.436;2023-06-10T02:21:00;6.17;6.17;4.97
64861;PMS5003;62652;42.274;-71.436;2023-06-10T02:22:00;4.67;4.57;2.93
64861;PMS5003;62652;42.274;-71.436;2023-06-10T02:23:00;6.60;6.60;5.27
64861;PMS5003;62652;42.274;-71.436;2023-06-10T02:24:00;5.90;5.90;4.50
64861;PMS5003;62652;42.274;-71.436;2023-06-10T02:25:00;5.80;4.53;3.30
64861;PMS5003;62652;42.274;-71.436;2023-06-10T02:26:00;4.63;4.63;3.57
64861;PMS5003;62652;42.274;-71.436;2023-06-10T02:27:00;6.03;5.43;3.87
64861;PMS5003;62652;42.274;-71.436;2023-06-10T02:28:00;5.43;5.43;3.90
64861;PMS5003;62652;42.274;-71.436;2023-06-10T02:29:00;5.10;4.63;3.63
64861;PMS5003;62652;42.274;-71.436;2023-06-10T02:30:00;5.80;5.43;3.53
64861;PMS5003;62652;42.274;-71.436;2023-06-10T02:31:00;6.23;6.23;5.20
64861;PMS5003;62652;42.274;-71.436;2023-06-10T02:32:01;4.73;4.13;2.50
64861;PMS5003;62652;42.274;-71.436;2023-06-10T02:33:00;5.07;5.07;3.60
64861;PMS5003;62652;42.274;-71.436;2023-06-10T02:34:00;6.07;6.07;4.10
64861;PMS5003;62652;42.274;-71.436;2023-06-10T02:35:00;4.57;4.57;3.60
64861;PMS5003;62652;42.274;-71.436;2023-06-10T02:36:00;5.47;5.33;3.93
64861;PMS5003;62652;42.274;-71.436;2023-06-10T02:37:00;6.37;6.37;3.90
64861;PMS5003;62652;42.274;-71.436;2023-06-10T02:38:00;6.33;6.10;3.87
64861;PMS5003;62652;42.274;-71.436;2023-06-10T02:39:00;4.63;4.63;3.73
64861;PMS5003;62652;42.274;-71.436;2023-06-10T02:40:00;4.90;4.80;3.07
64861;PMS5003;62652;42.274;-71.436;2023-06-10T02:41:00;5.87;5.87;4.00
64861;PMS5003;62652;42.274;-71.436;2023-06-10T02:42:00;6.83;6.17;4.23
64861;PMS5003;62652;42.274;-71.436;2023-06-10T02:43:00;4.77;4.77;4.07
64861;PMS5003;62652;42.274;-71.436;2023-06-10T02:44:00;5.90;5.57;3.70
64861;PMS5003;62652;42.274;-71.436;2023-06-10T02:45:00;5.67;5.43;3.57
64861;PMS5003;62652;42.274;-71.436;2023-06-10T02:46:00;5.97;5.63;4.23
64861;PMS5003;62652;42.274;-71.436;2023-06-10T02:47:00;6.40;6.40;4.93
64861;PMS5003;62652;42.274;-71.436;2023-06-10T02:48:00;8.47;8.47;6.37
64861;PMS5003;62652;42.274;-71.436;2023-06-10T02:49:00;5.27;5.27;4.27
64861;PMS5003;62652;42.274;-71.436;2023-06-10T02:50:00;7.10;6.23;4.83
64861;PMS5003;62652;42.274;-71.436;2023-06-10T02:51:00;8.40;8.23;6.90
64861;PMS5003;62652;42.274;-71.436;2023-06-10T02:52:00;8.27;8.07;6.40
64861;PMS5003;62652;42.274;-71.436;2023-06-10T02:53:00;7.33;7.20;5.27
64861;PMS5003;62652;42.274;-71.436;2023-06-10T02:54:00;7.23;7.23;6.13
64861;PMS5003;62652;42.274;-71.436;2023-06-10T02:55:00;8.17;7.70;6.33
64861;PMS5003;62652;42.274;-71.436;2023-06-10T02:56:00;7.87;7.80;5.80
64861;PMS5003;62652;42.274;-71.436;2023-06-10T02:57:00;10.13;9.80;7.00
64861;PMS5003;62652;42.274;-71.436;2023-06-10T02:58:00;8.73;7.87;6.10
64861;PMS5003;62652;42.274;-71.436;2023-06-10T02:59:00;7.40;7.17;5.17
64861;PMS5003;62652;42.274;-71.436;2023-06-10T03:00:00;8.67;8.40;6.10
64861;PMS5003;62652;42.274;-71.436;2023-06-10T03:01:00;7.37;7.37;5.67
64861;PMS5003;62652;42.274;-71.436;2023-06-10T03:02:00;6.77;6.10;4.73
64861;PMS5003;62652;42.274;-71.436;2023-06-10T03:03:00;8.87;8.57;6.90
64861;PMS5003;62652;42.274;-71.436;2023-06-10T03:04:00;7.63;7.63;6.00
64861;PMS5003;62652;42.274;-71.436;2023-06-10T03:05:00;10.23;9.13;7.23
64861;PMS5003;62652;42.274;-71.436;2023-06-10T03:06:00;7.23;7.23;5.93
64861;PMS5003;62652;42.274;-71.436;2023-06-10T03:07:00;7.57;7.57;5.57
64861;PMS5003;62652;42.274;-71.436;2023-06-10T03:08:00;8.37;8.37;5.60
64861;PMS5003;62652;42.274;-71.436;2023-06-10T03:09:00;7.70;7.70;5.67
64861;PMS5003;62652;42.274;-71.436;2023-06-10T03:10:00;7.43;7.37;5.20
64861;PMS5003;62652;42.274;-71.436;2023-06-10T03:11:00;7.53;7.53;5.83
64861;PMS5003;62652;42.274;-71.436;2023-06-10T03:12:00;8.00;7.23;4.90
64861;PMS5003;62652;42.274;-71.436;2023-06-10T03:13:00;8.73;8.27;6.83
64861;PMS5003;62652;42.274;-71.436;2023-06-10T03:14:00;8.37;7.63;5.73
64861;PMS5003;62652;42.274;-71.436;2023-06-10T03:15:00;7.90;7.57;6.40
64861;PMS5003;62652;42.274;-71.436;2023-06-10T03:16:00;8.67;8.43;6.63
64861;PMS5003;62652;42.274;-71.436;2023-06-10T03:17:00;7.23;6.90;5.30
64861;PMS5003;62652;42.274;-71.436;2023-06-10T03:18:00;8.90;8.67;5.57
64861;PMS5003;62652;42.274;-71.436;2023-06-10T03:19:00;7.80;6.90;5.67
64861;PMS5003;62652;42.274;-71.436;2023-06-10T03:20:00;8.80;7.63;5.53
64861;PMS5003;62652;42.274;-71.436;2023-06-10T03:21:00;7.63;7.50;5.87
64861;PMS5003;62652;42.274;-71.436;2023-06-10T03:22:07;7.57;7.57;5.87
64861;PMS5003;62652;42.274;-71.436;2023-06-10T03:23:00;7.33;7.33;6.20
64861;PMS5003;62652;42.274;-71.436;2023-06-10T03:24:00;6.77;6.77;5.13
64861;PMS5003;62652;42.274;-71.436;2023-06-10T03:25:00;7.40;7.20;5.03
64861;PMS5003;62652;42.274;-71.436;2023-06-10T03:26:00;8.83;8.27;5.80
64861;PMS5003;62652;42.274;-71.436;2023-06-10T03:27:00;7.73;6.97;5.93
64861;PMS5003;62652;42.274;-71.436;2023-06-10T03:28:00;6.20;6.20;5.13
64861;PMS5003;62652;42.274;-71.436;2023-06-10T03:29:00;8.73;7.93;5.37
64861;PMS5003;62652;42.274;-71.436;2023-06-10T03:30:00;9.23;8.10;4.73
64861;PMS5003;62652;42.274;-71.436;2023-06-10T03:31:00;7.13;7.13;4.87
64861;PMS5003;62652;42.274;-71.436;2023-06-10T03:32:00;8.27;8.20;6.00
64861;PMS5003;62652;42.274;-71.436;2023-06-10T03:33:00;8.23;7.60;5.67
64861;PMS5003;62652;42.274;-71.436;2023-06-10T03:34:00;7.07;6.87;5.97
64861;PMS5003;62652;42.274;-71.436;2023-06-10T03:35:00;8.53;8.20;6.10
64861;PMS5003;62652;42.274;-71.436;2023-06-10T03:36:00;7.87;7.87;5.00
64861;PMS5003;62652;42.274;-71.436;2023-06-10T03:37:00;8.70;7.33;5.33
64861;PMS5003;62652;42.274;-71.436;2023-06-10T03:38:00;9.87;9.17;7.07
64861;PMS5003;62652;42.274;-71.436;2023-06-10T03:39:00;7.63;7.63;5.60
64861;PMS5003;62652;42.274;-71.436;2023-06-10T03:40:00;6.50;6.17;5.07
64861;PMS5003;62652;42.274;-71.436;2023-06-10T03:41:00;7.23;6.83;4.63
64861;PMS5003;62652;42.274;-71.436;2023-06-10T03:42:00;7.40;7.40;4.47
64861;PMS5003;62652;42.274;-71.436;2023-06-10T03:43:00;8.23;8.23;5.13
64861;PMS5003;62652;42.274;-71.436;2023-06-10T03:44:00;8.47;8.27;5.47
64861;PMS5003;62652;42.274;-71.436;2023-06-10T03:45:00;7.57;6.73;4.63
64861;PMS5003;62652;42.274;-71.436;2023-06-10T03:46:00;7.07;6.93;5.07
64861;PMS5003;62652;42.274;-71.436;2023-06-10T03:47:00;7.53;6.63;5.13
64861;PMS5003;62652;42.274;-71.436;2023-06-10T03:48:00;7.67;7.37;5.17
64861;PMS5003;62652;42.274;-71.436;2023-06-10T03:49:00;7.80;7.80;5.13
64861;PMS5003;62652;42.274;-71.436;2023-06-10T03:50:00;6.60;6.57;5.07
64861;PMS5003;62652;42.274;-71.436;2023-06-10T03:51:00;8.33;7.97;6.33
64861;PMS5003;62652;42.274;-71.436;2023-06-10T03:52:00;9.03;7.90;5.83
64861;PMS5003;62652;42.274;-71.436;2023-06-10T03:53:00;7.87;7.73;6.00
64861;PMS5003;62652;42.274;-71.436;2023-06-10T03:54:00;7.47;7.47;5.90
64861;PMS5003;62652;42.274;-71.436;2023-06-10T03:55:00;7.40;7.33;5.67
64861;PMS5003;62652;42.274;-71.436;2023-06-10T03:56:00;8.40;7.93;6.43
64861;PMS5003;62652;42.274;-71.436;2023-06-10T03:57:00;16.80;15.50;11.60
64861;PMS5003;62652;42.274;-71.436;2023-06-10T03:58:00;8.83;8.50;6.83
64861;PMS5003;62652;42.274;-71.436;2023-06-10T03:59:00;9.10;8.80;6.20
64861;PMS5003;62652;42.274;-71.436;2023-06-10T04:00:00;7.57;7.57;6.67
64861;PMS5003;62652;42.274;-71.436;2023-06-10T04:01:00;8.63;8.63;6.87
64861;PMS5003;62652;42.274;-71.436;2023-06-10T04:02:00;9.90;9.60;7.43
64861;PMS5003;62652;42.274;-71.436;2023-06-10T04:03:00;8.80;8.70;6.93
64861;PMS5003;62652;42.274;-71.436;2023-06-10T04:04:00;10.17;10.17;8.27
64861;PMS5003;62652;42.274;-71.436;2023-06-10T04:05:00;9.07;9.07;7.57
64861;PMS5003;62652;42.274;-71.436;2023-06-10T04:06:00;9.07;9.07;6.80
64861;PMS5003;62652;42.274;-71.436;2023-06-10T04:07:00;6.77;6.77;5.00
64861;PMS5003;62652;42.274;-71.436;2023-06-10T04:08:00;8.80;7.80;5.60
64861;PMS5003;62652;42.274;-71.436;2023-06-10T04:09:00;7.43;7.43;5.90
64861;PMS5003;62652;42.274;-71.436;2023-06-10T04:10:00;7.10;7.10;5.07
64861;PMS5003;62652;42.274;-71.436;2023-06-10T04:11:00;6.57;6.57;5.37
64861;PMS5003;62652;42.274;-71.436;2023-06-10T04:12:00;8.40;7.73;5.97
64861;PMS5003;62652;42.274;-71.436;2023-06-10T04:13:00;6.63;6.63;4.73
64861;PMS5003;62652;42.274;-71.436;2023-06-10T04:14:00;7.43;6.90;5.70
64861;PMS5003;62652;42.274;-71.436;2023-06-10T04:15:00;7.77;7.77;5.33
64861;PMS5003;62652;42.274;-71.436;2023-06-10T04:16:00;8.07;7.50;6.37
64861;PMS5003;62652;42.274;-71.436;2023-06-10T04:17:00;6.53;6.53;4.93
64861;PMS5003;62652;42.274;-71.436;2023-06-10T04:18:00;7.50;7.20;5.10
64861;PMS5003;62652;42.274;-71.436;2023-06-10T04:19:00;9.50;9.40;5.37
64861;PMS5003;62652;42.274;-71.436;2023-06-10T04:20:00;8.40;7.47;4.87
64861;PMS5003;62652;42.274;-71.436;2023-06-10T04:21:00;6.90;6.90;5.57
64861;PMS5003;62652;42.274;-71.436;2023-06-10T04:22:00;8.03;7.27;5.33
64861;PMS5003;62652;42.274;-71.436;2023-06-10T04:23:00;6.87;6.37;4.77
64861;PMS5003;62652;42.274;-71.436;2023-06-10T04:24:00;6.47;6.47;4.90
64861;PMS5003;62652;42.274;-71.436;2023-06-10T04:25:00;7.67;7.07;4.97
64861;PMS5003;62652;42.274;-71.436;2023-06-10T04:26:00;7.93;7.13;6.07
64861;PMS5003;62652;42.274;-71.436;2023-06-10T04:27:00;7.20;6.90;5.77
64861;PMS5003;62652;42.274;-71.436;2023-06-10T04:28:00;7.00;6.67;5.40
64861;PMS5003;62652;42.274;-71.436;2023-06-10T04:29:00;7.23;7.07;5.73
64861;PMS5003;62652;42.274;-71.436;2023-06-10T04:30:00;8.33;8.00;6.00
64861;PMS5003;62652;42.274;-71.436;2023-06-10T04:31:00;8.60;8.13;6.13
64861;PMS5003;62652;42.274;-71.436;2023-06-10T04:32:00;7.17;6.77;5.37
64861;PMS5003;62652;42.274;-71.436;2023-06-10T04:33:00;7.90;7.60;5.23
64861;PMS5003;62652;42.274;-71.436;2023-06-10T04:34:00;7.03;7.03;4.63
64861;PMS5003;62652;42.274;-71.436;2023-06-10T04:35:00;6.63;6.37;4.57
64861;PMS5003;62652;42.274;-71.436;2023-06-10T04:36:00;6.90;6.90;5.30
64861;PMS5003;62652;42.274;-71.436;2023-06-10T04:37:00;6.40;5.83;4.37
64861;PMS5003;62652;42.274;-71.436;2023-06-10T04:38:00;6.17;6.17;4.03
64861;PMS5003;62652;42.274;-71.436;2023-06-10T04:39:00;6.53;5.87;4.83
64861;PMS5003;62652;42.274;-71.436;2023-06-10T04:40:00;6.23;6.23;4.20
64861;PMS5003;62652;42.274;-71.436;2023-06-10T04:41:00;7.03;6.30;4.87
64861;PMS5003;62652;42.274;-71.436;2023-06-10T04:42:00;6.77;6.23;4.87
64861;PMS5003;62652;42.274;-71.436;2023-06-10T04:43:00;5.73;5.73;4.10
64861;PMS5003;62652;42.274;-71.436;2023-06-10T04:44:00;8.27;7.57;6.13
64861;PMS5003;62652;42.274;-71.436;2023-06-10T04:45:00;5.63;5.53;4.23
64861;PMS5003;62652;42.274;-71.436;2023-06-10T04:46:00;5.27;5.00;3.70
64861;PMS5003;62652;42.274;-71.436;2023-06-10T04:47:00;6.90;6.90;5.20
64861;PMS5003;62652;42.274;-71.436;2023-06-10T04:48:00;6.17;6.17;5.10
64861;PMS5003;62652;42.274;-71.436;2023-06-10T04:49:00;4.53;4.50;3.13
64861;PMS5003;62652;42.274;-71.436;2023-06-10T04:50:00;6.60;5.87;4.13
64861;PMS5003;62652;42.274;-71.436;2023-06-10T04:51:00;5.00;5.00;3.47
64861;PMS5003;62652;42.274;-71.436;2023-06-10T04:52:00;6.00;5.40;4.07
64861;PMS5003;62652;42.274;-71.436;2023-06-10T04:53:00;4.73;4.73;3.40
64861;PMS5003;62652;42.274;-71.436;2023-06-10T04:54:00;5.00;5.00;3.57
64861;PMS5003;62652;42.274;-71.436;2023-06-10T04:55:00;6.10;5.37;3.03
64861;PMS5003;62652;42.274;-71.436;2023-06-10T04:56:00;6.37;5.97;4.00
64861;PMS5003;62652;42.274;-71.436;2023-06-10T04:57:00;5.20;4.23;3.63
64861;PMS5003;62652;42.274;-71.436;2023-06-10T04:58:00;6.20;6.10;4.40
64861;PMS5003;62652;42.274;-71.436;2023-06-10T04:59:00;5.07;4.70;3.17
64861;PMS5003;62652;42.274;-71.436;2023-06-10T05:00:00;4.53;4.23;3.60
64861;PMS5003;62652;42.274;-71.436;2023-06-10T05:01:00;4.60;4.60;3.10
64861;PMS5003;62652;42.274;-71.436;2023-06-10T05:02:00;5.83;5.53;4.03
64861;PMS5003;62652;42.274;-71.436;2023-06-10T05:03:00;5.97;5.10;3.87
64861;PMS5003;62652;42.274;-71.436;2023-06-10T05:04:00;6.23;5.73;4.70
64861;PMS5003;62652;42.274;-71.436;2023-06-10T05:05:00;5.33;5.33;4.17
64861;PMS5003;62652;42.274;-71.436;2023-06-10T05:06:00;5.00;5.00;3.30
64861;PMS5003;62652;42.274;-71.436;2023-06-10T05:07:00;6.27;6.17;3.73
64861;PMS5003;62652;42.274;-71.436;2023-06-10T05:08:00;5.63;5.00;3.87
64861;PMS5003;62652;42.274;-71.436;2023-06-10T05:09:00;6.63;6.63;5.00
64861;PMS5003;62652;42.274;-71.436;2023-06-10T05:10:00;6.37;5.90;3.60
64861;PMS5003;62652;42.274;-71.436;2023-06-10T05:11:00;5.57;5.57;4.50
64861;PMS5003;62652;42.274;-71.436;2023-06-10T05:12:00;5.13;4.60;3.23
64861;PMS5003;62652;42.274;-71.436;2023-06-10T05:13:00;5.00;4.90;3.90
64861;PMS5003;62652;42.274;-71.436;2023-06-10T05:14:00;4.83;4.83;3.70
64861;PMS5003;62652;42.274;-71.436;2023-06-10T05:15:00;5.00;4.83;4.03
64861;PMS5003;62652;42.274;-71.436;2023-06-10T05:16:00;5.13;5.13;3.33
64861;PMS5003;62652;42.274;-71.436;2023-06-10T05:17:00;6.03;5.80;3.57
64861;PMS5003;62652;42.274;-71.436;2023-06-10T05:18:00;5.43;5.43;3.53
64861;PMS5003;62652;42.274;-71.436;2023-06-10T05:19:00;6.30;6.30;4.23
64861;PMS5003;62652;42.274;-71.436;2023-06-10T05:20:00;5.83;5.07;3.87
64861;PMS5003;62652;42.274;-71.436;2023-06-10T05:21:00;5.30;5.00;3.90
64861;PMS5003;62652;42.274;-71.436;2023-06-10T05:22:00;4.47;4.23;3.43
64861;PMS5003;62652;42.274;-71.436;2023-06-10T05:23:00;6.30;6.30;4.67
64861;PMS5003;62652;42.274;-71.436;2023-06-10T05:24:00;7.43;7.07;4.77
64861;PMS5003;62652;42.274;-71.436;2023-06-10T05:25:00;6.50;5.87;3.87
64861;PMS5003;62652;42.274;-71.436;2023-06-10T05:26:00;6.37;5.77;4.27
64861;PMS5003;62652;42.274;-71.436;2023-06-10T05:27:00;7.17;6.87;3.83
64861;PMS5003;62652;42.274;-71.436;2023-06-10T05:28:00;5.33;5.10;3.70
64861;PMS5003;62652;42.274;-71.436;2023-06-10T05:29:00;4.53;4.53;3.43
64861;PMS5003;62652;42.274;-71.436;2023-06-10T05:30:00;6.17;5.77;4.07
64861;PMS5003;62652;42.274;-71.436;2023-06-10T05:31:00;6.30;6.10;4.30
64861;PMS5003;62652;42.274;-71.436;2023-06-10T05:32:00;5.30;5.30;3.80
64861;PMS5003;62652;42.274;-71.436;2023-06-10T05:33:00;5.43;5.13;3.27
64861;PMS5003;62652;42.274;-71.436;2023-06-10T05:34:00;5.43;5.33;4.00
64861;PMS5003;62652;42.274;-71.436;2023-06-10T05:35:00;6.27;5.53;4.20
64861;PMS5003;62652;42.274;-71.436;2023-06-10T05:36:00;6.27;5.87;4.00
64861;PMS5003;62652;42.274;-71.436;2023-06-10T05:37:00;7.43;5.97;4.10
64861;PMS5003;62652;42.274;-71.436;2023-06-10T05:38:00;4.50;4.50;2.70
64861;PMS5003;62652;42.274;-71.436;2023-06-10T05:39:00;5.23;4.53;2.90